Time;durP1;ratioP1;P1;durP2;ratioP2;P2;SDS_P1;SDS_P2;PMS_P1;PMS_P2;Temp;Humidity;BMP_temperature;BMP_pressure;BME280_temperature;BME280_humidity;BME280_pressure;Samples;Min_cycle;Max_cycle;Signal;HPM_P1;HPM_P2
2021/12/03 00:00:58;;;;;;;0.68;0.40;;;9.80;86.30;;;;;;5056235;28;20519;-82
2021/12/03 00:03:25;;;;;;;0.82;0.43;;;9.80;86.10;;;;;;5053272;28;20073;-81
2021/12/03 00:05:52;;;;;;;0.40;0.32;;;9.80;85.90;;;;;;5039154;28;20425;-81
2021/12/03 00:08:19;;;;;;;0.40;0.40;;;9.80;85.80;;;;;;5035157;28;20381;-81
2021/12/03 00:10:49;;;;;;;0.50;0.43;;;9.90;85.90;;;;;;5036101;28;20041;-82
2021/12/03 00:13:15;;;;;;;;;;;9.90;85.90;;;;;;5048715;28;20428;-82
2021/12/03 00:15:41;;;;;;;0.70;0.50;;;9.90;85.90;;;;;;5053016;28;19913;-81
2021/12/03 00:18:06;;;;;;;0.47;0.40;;;9.90;86.10;;;;;;5052863;28;20489;-81
2021/12/03 00:20:35;;;;;;;0.40;0.32;;;9.90;86.20;;;;;;5053645;28;20045;-81
2021/12/03 00:23:04;;;;;;;0.38;0.32;;;9.90;86.20;;;;;;5052361;28;20037;-81
2021/12/03 00:25:30;;;;;;;0.30;0.30;;;9.90;86.50;;;;;;5053110;28;20102;-82
2021/12/03 00:27:56;;;;;;;0.30;0.30;;;9.90;86.70;;;;;;5054204;28;20079;-82
2021/12/03 00:30:22;;;;;;;0.45;0.40;;;9.90;86.70;;;;;;5055769;28;20121;-81
2021/12/03 00:32:48;;;;;;;0.45;0.38;;;9.90;86.40;;;;;;5034926;28;20037;-83
2021/12/03 00:35:15;;;;;;;0.80;0.50;;;9.90;86.00;;;;;;5052995;28;20048;-83
2021/12/03 00:37:43;;;;;;;0.73;0.60;;;9.80;86.10;;;;;;5052688;28;20090;-84
2021/12/03 00:40:11;;;;;;;0.70;0.50;;;9.80;86.60;;;;;;5035125;28;20045;-84
2021/12/03 00:42:38;;;;;;;0.95;0.50;;;9.80;86.20;;;;;;5052496;28;20036;-84
2021/12/03 00:45:05;;;;;;;0.50;0.50;;;9.70;85.50;;;;;;5053040;28;20036;-84
2021/12/03 00:47:31;;;;;;;0.70;0.60;;;9.60;85.90;;;;;;5053487;28;20037;-83
2021/12/03 00:49:57;;;;;;;0.60;0.60;;;9.50;86.40;;;;;;5041262;28;20035;-83
2021/12/03 00:52:23;;;;;;;0.80;0.70;;;9.50;86.60;;;;;;5055753;28;20485;-82
2021/12/03 00:54:49;;;;;;;0.73;0.70;;;9.50;86.80;;;;;;5015348;28;20060;-82
2021/12/03 00:57:16;;;;;;;1.80;0.60;;;9.50;86.90;;;;;;5041627;28;20112;-83
2021/12/03 00:59:42;;;;;;;0.98;0.68;;;9.50;87.00;;;;;;5032792;28;20111;-82
2021/12/03 01:02:08;;;;;;;1.15;0.80;;;9.30;87.60;;;;;;5022661;28;20048;-82
2021/12/03 01:04:34;;;;;;;0.70;0.70;;;9.40;87.60;;;;;;5048823;28;20049;-82
2021/12/03 01:06:59;;;;;;;1.00;0.90;;;9.40;87.60;;;;;;5052650;28;20041;-82
2021/12/03 01:09:25;;;;;;;1.58;0.98;;;9.30;87.50;;;;;;5052660;28;20035;-82
2021/12/03 01:11:51;;;;;;;1.25;1.10;;;9.30;87.60;;;;;;5064484;28;20025;-81
2021/12/03 01:14:18;;;;;;;1.55;0.85;;;9.20;87.80;;;;;;5053720;28;20120;-82
2021/12/03 01:16:44;;;;;;;4.90;1.13;;;9.20;88.20;;;;;;5052737;28;20041;-82
2021/12/03 01:19:10;;;;;;;1.80;1.17;;;9.10;88.50;;;;;;5052339;28;20029;-82
2021/12/03 01:21:37;;;;;;;1.05;0.90;;;9.00;89.10;;;;;;5054389;28;20029;-83
2021/12/03 01:24:04;;;;;;;1.20;1.00;;;9.10;89.00;;;;;;5056461;28;20037;-83
2021/12/03 01:26:30;;;;;;;1.25;0.90;;;9.10;88.90;;;;;;5048971;28;20473;-82
2021/12/03 01:28:55;;;;;;;2.03;1.30;;;9.20;88.90;;;;;;5029409;28;20127;-82
2021/12/03 01:31:21;;;;;;;1.35;1.10;;;9.10;89.10;;;;;;5058913;28;20113;-82
2021/12/03 01:33:48;;;;;;;1.73;1.35;;;9.10;89.20;;;;;;5062591;28;20032;-82
2021/12/03 01:36:14;;;;;;;2.08;0.98;;;9.10;88.90;;;;;;5047671;28;20528;-82
2021/12/03 01:38:40;;;;;;;1.23;1.02;;;9.20;89.00;;;;;;5053998;28;20069;-81
2021/12/03 01:41:06;;;;;;;1.75;1.40;;;9.20;89.00;;;;;;5044062;28;20070;-81
2021/12/03 01:43:32;;;;;;;1.55;1.45;;;9.20;88.90;;;;;;5068060;28;20179;-82
2021/12/03 01:46:01;;;;;;;2.20;1.25;;;9.20;89.00;;;;;;5047199;28;20029;-82
2021/12/03 01:48:27;;;;;;;1.83;1.27;;;9.20;89.10;;;;;;5051319;28;20037;-82
2021/12/03 01:50:54;;;;;;;1.65;1.40;;;9.10;89.00;;;;;;5058276;28;20038;-82
2021/12/03 01:53:23;;;;;;;1.00;0.90;;;9.20;89.10;;;;;;5043089;28;20048;-82
2021/12/03 01:55:51;;;;;;;1.80;1.25;;;9.30;89.10;;;;;;5056271;28;20055;-83
2021/12/03 01:58:17;;;;;;;1.30;1.15;;;9.30;89.10;;;;;;5049154;28;20060;-83
2021/12/03 02:00:48;;;;;;;1.77;1.40;;;9.30;88.90;;;;;;5061584;28;20075;-83
2021/12/03 02:03:15;;;;;;;1.35;1.20;;;9.40;88.90;;;;;;5055779;28;20040;-83
2021/12/03 02:05:43;;;;;;;1.65;1.30;;;9.40;88.80;;;;;;5060624;28;20041;-82
2021/12/03 02:08:09;;;;;;;1.73;1.63;;;9.50;88.70;;;;;;5041021;28;20059;-81
2021/12/03 02:10:36;;;;;;;2.47;1.80;;;9.50;88.60;;;;;;5045343;28;20026;-81
2021/12/03 02:13:02;;;;;;;2.67;1.63;;;9.50;88.40;;;;;;5039643;28;20053;-81
2021/12/03 02:15:28;;;;;;;1.60;1.48;;;9.50;88.30;;;;;;5058544;28;20033;-82
2021/12/03 02:17:54;;;;;;;2.20;1.73;;;9.50;88.20;;;;;;5054630;28;20033;-81
2021/12/03 02:20:20;;;;;;;2.05;1.80;;;9.50;88.30;;;;;;5056031;28;20041;-81
2021/12/03 02:22:49;;;;;;;1.98;1.55;;;9.50;88.30;;;;;;5054667;28;20048;-81
2021/12/03 02:25:20;;;;;;;1.92;1.65;;;9.50;88.20;;;;;;5037165;28;20033;-81
2021/12/03 02:27:54;;;;;;;1.95;1.58;;;9.50;88.00;;;;;;5050854;28;20082;-81
2021/12/03 02:30:21;;;;;;;2.95;1.90;;;9.50;88.10;;;;;;5040881;28;20112;-82
2021/12/03 02:32:49;;;;;;;2.42;1.65;;;9.50;87.90;;;;;;5054021;28;20047;-82
2021/12/03 02:35:16;;;;;;;1.77;1.35;;;9.50;87.80;;;;;;5051871;28;20037;-81
2021/12/03 02:37:42;;;;;;;2.05;1.85;;;9.40;87.80;;;;;;5037083;28;20421;-81
2021/12/03 02:40:09;;;;;;;2.85;2.10;;;9.30;88.00;;;;;;5057160;28;20469;-81
2021/12/03 02:42:36;;;;;;;2.05;1.80;;;9.30;88.00;;;;;;5054861;28;20087;-82
2021/12/03 02:45:04;;;;;;;3.25;1.92;;;9.20;88.50;;;;;;5054561;28;20028;-82
2021/12/03 02:47:30;;;;;;;1.70;1.50;;;9.20;88.40;;;;;;5043518;28;20048;-81
2021/12/03 02:49:55;;;;;;;2.80;2.00;;;9.20;88.30;;;;;;5056156;28;20029;-81
2021/12/03 02:52:21;;;;;;;1.92;1.60;;;9.10;88.10;;;;;;5054706;28;20048;-81
2021/12/03 02:54:47;;;;;;;1.92;1.48;;;9.20;88.30;;;;;;5028449;28;20042;-81
2021/12/03 02:57:13;;;;;;;2.00;1.60;;;9.20;88.10;;;;;;5026148;28;20566;-81
2021/12/03 02:59:38;;;;;;;2.20;1.60;;;9.20;88.10;;;;;;5054198;28;20035;-83
2021/12/03 03:02:04;;;;;;;2.10;1.90;;;9.30;88.10;;;;;;5036143;28;20400;-83
2021/12/03 03:04:30;;;;;;;1.55;1.45;;;9.30;87.80;;;;;;5056444;28;20098;-83
2021/12/03 03:06:56;;;;;;;1.98;1.77;;;9.40;87.80;;;;;;5050478;28;20440;-83
2021/12/03 03:09:22;;;;;;;1.73;1.55;;;9.40;87.80;;;;;;5040789;28;20044;-83
2021/12/03 03:11:47;;;;;;;2.63;1.88;;;9.40;87.80;;;;;;5054770;28;20521;-83
2021/12/03 03:14:14;;;;;;;1.85;1.65;;;9.40;87.20;;;;;;5054072;28;20504;-82
2021/12/03 03:16:40;;;;;;;2.35;1.92;;;9.30;87.50;;;;;;5055872;28;20247;-82
2021/12/03 03:19:20;;;;;;;2.53;1.98;;;9.30;87.60;;;;;;5053765;28;20146;-82
2021/12/03 03:21:47;;;;;;;2.63;2.08;;;9.30;87.70;;;;;;5041123;28;20069;-82
2021/12/03 03:24:14;;;;;;;3.13;2.22;;;9.20;87.40;;;;;;5023319;28;20065;-83
2021/12/03 03:26:41;;;;;;;1.85;1.60;;;9.20;87.40;;;;;;5050958;28;20570;-84
2021/12/03 03:29:16;;;;;;;2.53;1.88;;;9.30;88.10;;;;;;5038225;28;20033;-82
2021/12/03 03:31:42;;;;;;;2.50;1.88;;;9.30;87.50;;;;;;5053971;28;20533;-83
2021/12/03 03:34:09;;;;;;;1.23;1.13;;;9.30;87.10;;;;;;5043094;28;20116;-83
2021/12/03 03:36:42;;;;;;;1.60;1.20;;;9.20;86.40;;;;;;5043451;28;20040;-83
2021/12/03 03:39:10;;;;;;;2.13;1.92;;;9.30;86.80;;;;;;5038505;28;20067;-82
2021/12/03 03:41:36;;;;;;;2.22;1.45;;;9.30;86.40;;;;;;5060227;28;20427;-82
2021/12/03 03:44:02;;;;;;;1.60;1.50;;;9.30;86.20;;;;;;5053951;28;20033;-82
2021/12/03 03:46:28;;;;;;;2.75;2.00;;;9.40;86.30;;;;;;5038834;28;20043;-81
2021/12/03 03:48:54;;;;;;;1.90;1.40;;;9.40;85.70;;;;;;5053008;28;20037;-81
2021/12/03 03:51:20;;;;;;;1.83;1.40;;;9.40;85.50;;;;;;5060040;28;20036;-81
2021/12/03 03:53:45;;;;;;;1.95;1.17;;;9.40;85.50;;;;;;5035450;28;20405;-81
2021/12/03 03:56:12;;;;;;;1.38;1.27;;;9.40;85.30;;;;;;5053200;28;20383;-81
2021/12/03 03:58:41;;;;;;;1.40;1.30;;;9.50;85.20;;;;;;5037795;28;20052;-82
2021/12/03 04:01:09;;;;;;;1.60;1.30;;;9.40;84.90;;;;;;5047674;28;20060;-80
2021/12/03 04:03:35;;;;;;;1.75;1.58;;;9.40;84.70;;;;;;5052825;28;20049;-83
2021/12/03 04:06:00;;;;;;;2.75;1.48;;;9.30;85.10;;;;;;5053051;28;20044;-82
2021/12/03 04:08:29;;;;;;;4.40;1.58;;;9.40;85.40;;;;;;5065721;28;20037;-83
2021/12/03 04:10:56;;;;;;;1.95;1.75;;;9.40;85.50;;;;;;5051873;28;20069;-82
2021/12/03 04:13:21;;;;;;;2.90;1.90;;;9.40;85.50;;;;;;5045668;28;20033;-83
2021/12/03 04:15:48;;;;;;;2.53;1.88;;;9.50;85.70;;;;;;5055070;28;20080;-83
2021/12/03 04:18:14;;;;;;;2.10;1.90;;;9.50;85.60;;;;;;5056072;28;20474;-83
2021/12/03 04:20:39;;;;;;;2.05;1.83;;;9.50;85.50;;;;;;5048866;28;20112;-83
2021/12/03 04:23:06;;;;;;;3.17;2.30;;;9.40;85.30;;;;;;5068122;28;20064;-83
2021/12/03 04:25:33;;;;;;;2.42;2.05;;;9.50;85.60;;;;;;5053430;28;20112;-83
2021/12/03 04:27:59;;;;;;;2.33;2.08;;;9.50;85.60;;;;;;5052614;28;20144;-84
2021/12/03 04:30:27;;;;;;;3.35;2.40;;;9.50;85.70;;;;;;5053138;28;20116;-83
2021/12/03 04:32:54;;;;;;;3.00;2.33;;;9.50;85.70;;;;;;5052777;28;20090;-84
2021/12/03 04:35:21;;;;;;;2.90;2.47;;;9.60;85.70;;;;;;5035082;28;20037;-84
2021/12/03 04:37:47;;;;;;;3.17;2.42;;;9.60;85.60;;;;;;5034560;28;20186;-83
2021/12/03 04:40:15;;;;;;;2.80;2.30;;;9.60;85.50;;;;;;5052744;28;20123;-83
2021/12/03 04:42:41;;;;;;;4.07;2.47;;;9.50;85.10;;;;;;5057167;28;20064;-83
2021/12/03 04:45:09;;;;;;;2.70;2.40;;;9.50;85.80;;;;;;5052397;28;20159;-83
2021/12/03 04:47:35;;;;;;;3.05;2.15;;;9.60;85.50;;;;;;5045153;28;20077;-83
2021/12/03 04:50:03;;;;;;;2.15;1.95;;;9.60;85.60;;;;;;5045730;28;20370;-83
2021/12/03 04:52:29;;;;;;;3.33;2.72;;;9.60;85.70;;;;;;5051732;28;20033;-84
2021/12/03 04:54:55;;;;;;;2.65;2.33;;;9.70;85.80;;;;;;5052324;28;20037;-83
2021/12/03 04:57:21;;;;;;;2.55;2.35;;;9.70;85.80;;;;;;5052194;28;20409;-82
2021/12/03 04:59:46;;;;;;;7.68;2.97;;;9.70;85.80;;;;;;5056919;28;20036;-83
2021/12/03 05:02:12;;;;;;;2.65;2.35;;;9.70;84.80;;;;;;5041202;28;20560;-82
2021/12/03 05:04:38;;;;;;;2.75;2.55;;;9.50;84.90;;;;;;5052136;28;20033;-82
2021/12/03 05:09:36;;;;;;;2.85;2.33;;;9.40;85.40;;;;;;5052632;28;20091;-83
2021/12/03 05:12:04;;;;;;;3.00;2.70;;;9.50;85.80;;;;;;5038136;28;20046;-83
2021/12/03 05:14:30;;;;;;;3.80;2.90;;;9.50;85.80;;;;;;5043308;28;20341;-83
2021/12/03 05:16:57;;;;;;;2.55;2.28;;;9.60;85.80;;;;;;5021566;28;20053;-84
2021/12/03 05:19:23;;;;;;;3.00;2.70;;;9.60;85.60;;;;;;5003596;28;20052;-84
2021/12/03 05:21:49;;;;;;;3.13;2.30;;;9.60;85.50;;;;;;5015369;28;20088;-83
2021/12/03 05:24:16;;;;;;;2.88;2.40;;;9.60;85.40;;;;;;5020757;28;20053;-83
2021/12/03 05:26:44;;;;;;;3.13;2.70;;;9.60;85.40;;;;;;5023597;28;20538;-82
2021/12/03 05:29:10;;;;;;;3.53;2.80;;;9.70;85.60;;;;;;5031527;28;20036;-81
2021/12/03 05:31:37;;;;;;;3.88;2.72;;;9.70;85.70;;;;;;5014556;28;20034;-82
2021/12/03 05:34:04;;;;;;;3.05;2.75;;;9.70;85.80;;;;;;5014566;28;20052;-82
2021/12/03 05:36:30;;;;;;;3.30;2.88;;;9.70;85.90;;;;;;5031164;28;20049;-82
2021/12/03 05:38:56;;;;;;;3.08;2.50;;;9.70;85.80;;;;;;4997833;28;20038;-81
2021/12/03 05:41:22;;;;;;;2.60;2.40;;;9.70;85.80;;;;;;5020585;28;20377;-80
2021/12/03 05:43:48;;;;;;;2.45;2.20;;;9.70;85.80;;;;;;5032683;28;20065;-82
2021/12/03 05:46:14;;;;;;;3.03;2.60;;;9.70;85.80;;;;;;5011898;28;20115;-82
2021/12/03 05:48:40;;;;;;;3.38;2.60;;;9.70;85.90;;;;;;5036678;28;20454;-82
2021/12/03 05:51:06;;;;;;;2.50;2.30;;;9.80;85.90;;;;;;5015024;28;20045;-80
2021/12/03 05:53:33;;;;;;;2.55;2.10;;;9.80;86.00;;;;;;5036454;28;20044;-81
2021/12/03 05:55:59;;;;;;;3.83;2.33;;;9.80;86.00;;;;;;5032064;28;20077;-80
2021/12/03 05:58:25;;;;;;;3.60;2.20;;;9.80;86.00;;;;;;5024554;28;20038;-80
2021/12/03 06:00:51;;;;;;;3.33;2.47;;;9.80;85.80;;;;;;5034279;28;20037;-79
2021/12/03 06:03:17;;;;;;;2.40;2.17;;;9.70;84.70;;;;;;5031301;28;20084;-79
2021/12/03 06:05:43;;;;;;;3.28;2.90;;;9.70;85.40;;;;;;5031105;28;20453;-79
2021/12/03 06:08:09;;;;;;;3.33;2.80;;;9.60;85.60;;;;;;5029757;28;20032;-79
2021/12/03 06:10:36;;;;;;;3.33;2.65;;;9.70;85.70;;;;;;5030173;28;20084;-80
2021/12/03 06:13:02;;;;;;;3.17;2.70;;;9.70;86.20;;;;;;5033564;28;20049;-80
2021/12/03 06:15:27;;;;;;;2.90;2.60;;;9.70;85.50;;;;;;5034126;28;20055;-82
2021/12/03 06:17:53;;;;;;;2.95;2.60;;;9.70;85.30;;;;;;5015851;28;20128;-85
2021/12/03 06:20:20;;;;;;;4.82;3.10;;;9.70;85.20;;;;;;5014380;28;20053;-80
2021/12/03 06:22:47;;;;;;;3.53;3.10;;;9.80;85.20;;;;;;5012297;28;20044;-82
2021/12/03 06:25:13;;;;;;;5.55;3.60;;;9.70;84.80;;;;;;5006762;28;20053;-83
2021/12/03 06:27:39;;;;;;;4.68;3.10;;;9.70;84.10;;;;;;5008256;28;20049;-83
2021/12/03 06:30:09;;;;;;;3.72;3.10;;;9.60;84.40;;;;;;5034946;28;20095;-80
2021/12/03 06:32:35;;;;;;;3.88;2.75;;;9.60;84.50;;;;;;5030285;28;20034;-82
2021/12/03 06:35:01;;;;;;;3.40;2.92;;;9.60;84.80;;;;;;5035047;28;20098;-81
2021/12/03 06:37:27;;;;;;;3.20;2.75;;;9.60;84.90;;;;;;5037927;28;20498;-79
2021/12/03 06:39:53;;;;;;;4.78;2.80;;;9.60;85.10;;;;;;5018957;28;20084;-84
2021/12/03 06:42:18;;;;;;;4.47;2.78;;;9.60;85.80;;;;;;5044375;28;20116;-83
2021/12/03 06:44:44;;;;;;;4.03;3.08;;;9.70;85.40;;;;;;5047102;28;20040;-82
2021/12/03 06:47:10;;;;;;;4.53;3.22;;;9.80;85.90;;;;;;5034637;28;20115;-82
2021/12/03 06:49:36;;;;;;;4.75;3.00;;;9.90;85.60;;;;;;5033656;28;20041;-83
2021/12/03 06:52:06;;;;;;;4.25;3.30;;;10.00;86.40;;;;;;5025286;28;20037;-82
2021/12/03 06:54:34;;;;;;;3.30;3.00;;;10.10;86.00;;;;;;5039303;28;20059;-82
2021/12/03 06:57:02;;;;;;;3.00;2.70;;;10.20;85.30;;;;;;5038483;28;20480;-80
2021/12/03 06:59:28;;;;;;;3.40;2.80;;;10.20;84.60;;;;;;5036573;28;20037;-81
2021/12/03 07:01:54;;;;;;;3.25;2.67;;;10.10;84.90;;;;;;5035871;28;20044;-82
2021/12/03 07:04:21;;;;;;;3.33;3.03;;;10.10;84.40;;;;;;5024401;28;20449;-81
2021/12/03 07:06:46;;;;;;;3.28;2.88;;;10.10;84.50;;;;;;5035873;28;20041;-81
2021/12/03 07:09:13;;;;;;;4.43;2.95;;;10.10;84.60;;;;;;5034278;28;20079;-81
2021/12/03 07:11:39;;;;;;;4.03;3.00;;;10.10;84.60;;;;;;5017772;28;20029;-81
2021/12/03 07:14:05;;;;;;;4.30;3.15;;;10.10;84.50;;;;;;5033228;28;20512;-81
2021/12/03 07:16:31;;;;;;;4.95;3.33;;;10.10;84.60;;;;;;5016868;28;20061;-81
2021/12/03 07:18:57;;;;;;;5.70;3.90;;;10.10;84.30;;;;;;5034241;28;20072;-83
2021/12/03 07:21:23;;;;;;;4.75;3.38;;;10.00;84.00;;;;;;5033636;28;20154;-85
2021/12/03 07:23:53;;;;;;;5.60;3.83;;;10.00;84.40;;;;;;5020340;28;20105;-84
2021/12/03 07:26:19;;;;;;;4.30;3.65;;;10.10;84.40;;;;;;5027411;28;20420;-86
2021/12/03 07:28:45;;;;;;;5.22;3.90;;;10.10;84.70;;;;;;5016121;28;20390;-83
2021/12/03 07:31:12;;;;;;;4.60;3.95;;;10.10;84.40;;;;;;5032478;28;20030;-83
2021/12/03 07:33:38;;;;;;;5.90;4.40;;;10.10;84.60;;;;;;5049576;28;20047;-83
2021/12/03 07:36:07;;;;;;;8.85;5.45;;;10.10;84.70;;;;;;5054840;28;20041;-83
2021/12/03 07:38:34;;;;;;;7.53;5.43;;;10.10;83.80;;;;;;5054316;28;20343;-80
2021/12/03 07:41:01;;;;;;;7.45;5.22;;;10.10;84.10;;;;;;5035811;28;20052;-81
2021/12/03 07:43:27;;;;;;;5.93;5.20;;;10.10;84.20;;;;;;5036072;28;20083;-80
2021/12/03 07:45:52;;;;;;;6.72;4.88;;;10.10;84.40;;;;;;5033770;28;20072;-81
2021/12/03 07:48:21;;;;;;;5.07;4.20;;;10.20;84.30;;;;;;5016448;28;20382;-80
2021/12/03 07:50:48;;;;;;;6.43;4.68;;;10.20;84.00;;;;;;5034442;28;20144;-80
2021/12/03 07:53:17;;;;;;;4.88;4.05;;;10.20;84.20;;;;;;5034230;28;20037;-80
2021/12/03 07:55:44;;;;;;;6.95;3.78;;;10.20;83.50;;;;;;5034043;28;20044;-80
2021/12/03 07:58:10;;;;;;;4.57;3.72;;;10.20;84.00;;;;;;5016223;28;20431;-80
2021/12/03 08:00:36;;;;;;;4.40;3.53;;;10.30;83.90;;;;;;5015916;28;20092;-80
2021/12/03 08:03:03;;;;;;;4.82;3.72;;;10.30;84.10;;;;;;5034061;28;20036;-80
2021/12/03 08:05:28;;;;;;;4.55;3.88;;;10.30;84.10;;;;;;5033673;28;20048;-80
2021/12/03 08:07:54;;;;;;;6.22;3.90;;;10.30;83.70;;;;;;5033498;28;20037;-80
2021/12/03 08:10:20;;;;;;;4.82;3.90;;;10.30;83.70;;;;;;5033280;28;20033;-80
2021/12/03 08:12:46;;;;;;;4.35;3.17;;;10.40;83.90;;;;;;5033433;28;20490;-80
2021/12/03 08:15:14;;;;;;;4.70;3.53;;;10.30;84.00;;;;;;4997317;28;20176;-81
2021/12/03 08:17:40;;;;;;;4.13;3.63;;;10.40;84.10;;;;;;5013782;28;20478;-80
2021/12/03 08:20:07;;;;;;;4.82;3.90;;;10.40;83.90;;;;;;5013687;28;20038;-80
2021/12/03 08:22:33;;;;;;;5.35;3.85;;;10.40;83.60;;;;;;5014153;28;20070;-80
2021/12/03 08:24:58;;;;;;;4.32;3.50;;;10.50;83.30;;;;;;5010909;28;20105;-80
2021/12/03 08:27:24;;;;;;;4.22;3.40;;;10.50;83.30;;;;;;5033325;28;20037;-81
2021/12/03 08:29:50;;;;;;;5.75;3.75;;;10.50;82.20;;;;;;5015196;28;20030;-81
2021/12/03 08:32:16;;;;;;;5.38;3.70;;;10.50;82.30;;;;;;5033034;28;20051;-81
2021/12/03 08:34:42;;;;;;;4.90;3.58;;;10.50;82.20;;;;;;5033357;28;20046;-80
2021/12/03 08:37:09;;;;;;;6.88;3.88;;;10.60;82.30;;;;;;4999933;28;20052;-80
2021/12/03 08:39:35;;;;;;;5.03;3.70;;;10.60;81.30;;;;;;5014790;28;20109;-80
2021/12/03 08:42:03;;;;;;;4.45;3.20;;;10.60;82.10;;;;;;5015001;28;20038;-80
2021/12/03 08:44:29;;;;;;;4.97;3.60;;;10.60;82.20;;;;;;5004001;28;20121;-81
2021/12/03 08:47:02;;;;;;;5.00;3.40;;;10.70;82.50;;;;;;4995884;28;20148;-80
2021/12/03 08:49:39;;;;;;;4.25;3.28;;;10.80;82.80;;;;;;5012335;28;20044;-81
2021/12/03 08:57:17;;;;;;;5.25;3.78;;;10.90;81.60;;;;;;5033853;28;20116;-83
2021/12/03 08:59:43;;;;;;;4.68;3.15;;;10.90;81.50;;;;;;5033297;28;20034;-83
2021/12/03 09:02:09;;;;;;;5.65;3.75;;;10.90;81.60;;;;;;5032282;28;20165;-83
2021/12/03 09:04:35;;;;;;;6.00;3.60;;;10.90;81.70;;;;;;5035074;28;20040;-83
2021/12/03 09:07:01;;;;;;;5.35;4.07;;;11.00;81.60;;;;;;5032281;28;20417;-83
2021/12/03 09:09:27;;;;;;;8.00;3.67;;;11.00;81.50;;;;;;5032886;28;20478;-82
2021/12/03 09:11:54;;;;;;;5.55;3.88;;;11.00;81.40;;;;;;5015854;28;20458;-83
2021/12/03 09:24:54;;;;;;;4.78;4.07;;;10.90;81.30;;;;;;5032820;28;20041;-83
2021/12/03 09:27:20;;;;;;;7.07;4.28;;;10.90;81.00;;;;;;5033702;28;20036;-83
2021/12/03 09:29:47;;;;;;;5.22;3.67;;;10.90;81.30;;;;;;5015001;28;20037;-83
2021/12/03 09:32:21;;;;;;;4.47;3.83;;;11.00;81.50;;;;;;5037616;28;20057;-83
2021/12/03 09:34:46;;;;;;;4.57;3.97;;;11.00;81.70;;;;;;5037625;28;20041;-83
2021/12/03 09:37:12;;;;;;;4.28;3.28;;;11.20;81.70;;;;;;5032073;28;20041;-83
2021/12/03 09:39:41;;;;;;;4.50;3.40;;;11.20;81.60;;;;;;5031553;28;20095;-83
2021/12/03 09:42:07;;;;;;;3.92;3.22;;;11.30;80.70;;;;;;5031879;28;20121;-83
2021/12/03 09:44:33;;;;;;;3.50;3.20;;;11.30;80.30;;;;;;5039842;28;20137;-83
2021/12/03 09:47:00;;;;;;;5.75;3.17;;;11.30;80.10;;;;;;5026664;28;20124;-83
2021/12/03 09:49:32;;;;;;;4.15;3.22;;;11.40;80.00;;;;;;5027677;28;20118;-83
2021/12/03 09:54:59;;;;;;;5.53;3.03;;;11.50;79.90;;;;;;5011885;28;20044;-84
2021/12/03 09:57:38;;;;;;;5.25;3.03;;;11.60;79.50;;;;;;5032023;28;20112;-84
2021/12/03 10:16:07;;;;;;;3.25;2.33;;;12.00;77.50;;;;;;5035623;28;20045;-83
2021/12/03 10:18:41;;;;;;;4.30;2.80;;;12.10;77.40;;;;;;5017844;28;20037;-83
2021/12/03 10:21:20;;;;;;;3.00;2.63;;;12.20;77.20;;;;;;5034830;28;20037;-83
2021/12/03 10:26:57;;;;;;;4.18;2.63;;;12.40;75.40;;;;;;5034513;28;20029;-81
2021/12/03 10:29:17;;;;;;;4.32;2.42;;;12.50;75.10;;;;;;5033696;28;20505;-80
2021/12/03 10:38:09;;;;;;;2.35;1.88;;;12.60;74.20;;;;;;5029644;28;20040;-80
2021/12/03 10:43:14;;;;;;;2.35;2.00;;;12.50;74.30;;;;;;5023234;28;20438;-79
2021/12/03 10:45:55;;;;;;;2.17;1.98;;;12.50;73.80;;;;;;5015717;28;20034;-80
2021/12/03 10:48:37;;;;;;;3.28;2.00;;;12.50;73.30;;;;;;5020984;28;20033;-79
2021/12/03 11:57:00;;;;;;;2.70;1.00;;;13.20;64.80;;;;;;5018064;28;20056;-85
2021/12/03 12:16:22;;;;;;;2.38;1.27;;;15.60;59.30;;;;;;5009400;28;20471;-84
2021/12/03 12:30:36;;;;;;;2.15;1.20;;;19.20;48.50;;;;;;5021763;28;20030;-80
2021/12/03 12:44:14;;;;;;;2.75;1.15;;;19.70;44.80;;;;;;5011554;28;20030;-80
2021/12/03 14:40:53;;;;;;;2.97;1.13;;;13.60;52.20;;;;;;5035042;28;20031;-78
2021/12/03 14:57:33;;;;;;;1.17;0.88;;;13.30;55.60;;;;;;5012747;28;20125;-83
2021/12/03 15:00:13;;;;;;;2.45;0.75;;;13.30;55.10;;;;;;5035532;28;20036;-83
2021/12/03 15:08:10;;;;;;;1.67;1.13;;;13.00;55.60;;;;;;5035023;28;20041;-83
2021/12/03 15:11:01;;;;;;;1.70;0.90;;;13.00;56.10;;;;;;5035679;28;20084;-83
2021/12/03 15:14:34;;;;;;;2.17;1.50;;;13.00;56.90;;;;;;5035008;28;20057;-83
2021/12/03 15:35:23;;;;;;;2.22;1.33;;;12.60;60.90;;;;;;5034523;28;20634;-83
2021/12/03 15:40:39;;;;;;;2.05;1.48;;;12.50;61.90;;;;;;5034499;28;20375;-83
2021/12/03 16:04:59;;;;;;;3.33;1.75;;;12.00;64.50;;;;;;5035244;28;20080;-82
2021/12/03 16:10:15;;;;;;;2.45;1.60;;;11.90;65.30;;;;;;5032123;28;20101;-83
2021/12/03 16:44:47;;;;;;;4.72;2.60;;;11.40;67.90;;;;;;5033056;28;20040;-77
2021/12/03 16:52:13;;;;;;;3.30;2.80;;;11.40;67.80;;;;;;5037144;28;20017;-83
2021/12/03 16:54:45;;;;;;;4.75;3.53;;;11.40;67.80;;;;;;5033520;28;20470;-84
2021/12/03 16:57:13;;;;;;;4.63;3.28;;;11.40;67.70;;;;;;5033109;28;20033;-83
2021/12/03 16:59:41;;;;;;;5.35;3.35;;;11.40;67.60;;;;;;5032077;28;20037;-83
2021/12/03 17:02:14;;;;;;;3.47;2.90;;;11.30;67.70;;;;;;5033286;28;20028;-83
2021/12/03 17:10:09;;;;;;;4.18;2.60;;;11.30;67.40;;;;;;5038757;28;20032;-83
2021/12/03 17:21:54;;;;;;;3.80;2.75;;;11.30;66.30;;;;;;4999065;28;20177;-84
2021/12/03 17:58:29;;;;;;;3.90;2.30;;;10.90;63.40;;;;;;5001650;28;20059;-78
2021/12/03 18:56:48;;;;;;;3.88;2.58;;;10.30;62.80;;;;;;5031769;28;20890;-83
2021/12/03 18:59:07;;;;;;;4.38;2.72;;;10.30;62.50;;;;;;5026553;28;20508;-82
2021/12/03 19:01:34;;;;;;;4.15;2.58;;;10.30;62.30;;;;;;5014142;28;20052;-83
2021/12/03 19:14:25;;;;;;;3.28;2.63;;;10.30;61.10;;;;;;5031188;28;20059;-83
2021/12/03 19:16:51;;;;;;;4.25;2.72;;;10.30;61.60;;;;;;5032765;28;20045;-82
2021/12/03 19:19:18;;;;;;;3.67;2.85;;;10.20;61.80;;;;;;5032876;28;20096;-82
2021/12/03 19:21:45;;;;;;;3.00;2.35;;;10.20;62.00;;;;;;5030724;28;20092;-82
2021/12/03 19:24:14;;;;;;;5.43;2.50;;;10.20;61.80;;;;;;5013131;28;20528;-83
2021/12/03 19:26:45;;;;;;;3.90;2.78;;;10.20;61.30;;;;;;5031508;28;20041;-82
2021/12/03 19:29:13;;;;;;;3.90;2.67;;;10.20;61.80;;;;;;5021677;28;20128;-82
2021/12/03 19:31:40;;;;;;;2.92;2.40;;;10.20;61.30;;;;;;5023841;28;20041;-82
2021/12/03 19:34:06;;;;;;;5.70;2.88;;;10.10;61.00;;;;;;5030280;28;20028;-82
2021/12/03 19:36:38;;;;;;;2.85;2.20;;;10.10;61.30;;;;;;5025871;28;20041;-82
2021/12/03 19:39:05;;;;;;;3.22;2.45;;;10.10;61.50;;;;;;5024354;28;20418;-82
2021/12/03 19:41:36;;;;;;;3.47;2.35;;;10.10;61.40;;;;;;5028498;28;20057;-84
2021/12/03 19:44:05;;;;;;;3.60;2.67;;;10.00;61.10;;;;;;5010722;28;20799;-84
2021/12/03 19:46:34;;;;;;;4.70;2.90;;;9.90;61.10;;;;;;5029759;28;20106;-82
2021/12/03 19:52:04;;;;;;;2.88;2.40;;;9.90;61.20;;;;;;4980367;28;20449;-82
2021/12/03 19:54:30;;;;;;;3.95;2.70;;;9.90;61.10;;;;;;5027546;28;20022;-82
2021/12/03 19:56:56;;;;;;;4.03;2.67;;;9.80;61.90;;;;;;5028318;28;20045;-82
2021/12/03 19:59:22;;;;;;;4.70;3.25;;;9.80;61.40;;;;;;5029800;28;20041;-82
2021/12/03 20:01:48;;;;;;;3.65;2.90;;;9.80;60.60;;;;;;5027422;28;20045;-82
2021/12/03 20:04:14;;;;;;;4.65;3.03;;;9.80;61.30;;;;;;5012043;28;20557;-83
2021/12/03 20:06:44;;;;;;;4.65;3.45;;;9.70;61.00;;;;;;5029079;28;20132;-83
2021/12/03 20:09:28;;;;;;;3.90;3.10;;;9.70;61.20;;;;;;5029604;28;20402;-82
2021/12/03 20:11:57;;;;;;;4.50;3.25;;;9.50;60.60;;;;;;5023900;28;20280;-82
2021/12/03 20:14:23;;;;;;;4.32;3.30;;;9.40;61.10;;;;;;4997084;28;20405;-82
2021/12/03 20:16:57;;;;;;;4.35;3.25;;;9.40;61.50;;;;;;5019070;28;20041;-83
2021/12/03 20:22:18;;;;;;;3.67;3.00;;;9.40;61.70;;;;;;5023206;28;20516;-82
2021/12/03 20:27:21;;;;;;;8.13;3.80;;;9.40;61.80;;;;;;5014930;28;20046;-83
2021/12/03 20:29:52;;;;;;;5.93;4.32;;;9.40;62.10;;;;;;5028428;28;20103;-82
2021/12/03 20:37:43;;;;;;;5.88;4.47;;;9.40;62.30;;;;;;5030080;28;20160;-83
2021/12/03 20:40:23;;;;;;;6.47;4.53;;;9.40;62.20;;;;;;5043353;28;20029;-84
2021/12/03 20:45:43;;;;;;;7.80;5.70;;;9.30;62.30;;;;;;5029354;28;20053;-79
2021/12/03 21:09:13;;;;;;;6.10;4.30;;;9.00;62.70;;;;;;5016944;28;20548;-79
2021/12/03 21:11:47;;;;;;;6.82;4.50;;;9.00;62.70;;;;;;5027102;28;20068;-80
2021/12/03 21:14:25;;;;;;;8.60;5.07;;;9.00;62.80;;;;;;5029385;28;20099;-78
2021/12/03 21:21:57;;;;;;;5.70;4.03;;;9.10;62.00;;;;;;5029098;28;20045;-79
2021/12/03 21:24:31;;;;;;;5.57;4.00;;;9.20;62.00;;;;;;5012130;28;20044;-79
2021/12/03 21:26:58;;;;;;;5.93;4.40;;;9.20;61.90;;;;;;5017635;28;20079;-79
2021/12/03 21:40:25;;;;;;;5.00;3.92;;;9.20;61.50;;;;;;4991929;28;20057;-79
2021/12/03 21:42:51;;;;;;;6.70;4.82;;;9.20;61.50;;;;;;5007195;28;20049;-79
2021/12/03 21:45:18;;;;;;;7.30;5.00;;;9.20;61.30;;;;;;5032657;28;20030;-79
2021/12/03 21:47:44;;;;;;;6.28;4.85;;;9.20;61.40;;;;;;5032202;28;20051;-79
2021/12/03 21:50:09;;;;;;;6.45;4.68;;;9.10;61.40;;;;;;5025532;28;20038;-79
2021/12/03 21:52:35;;;;;;;10.65;7.85;;;9.10;61.40;;;;;;5024362;28;20514;-79
2021/12/03 21:55:06;;;;;;;7.22;5.65;;;8.90;60.50;;;;;;5011407;28;20030;-79